Deutschlandsberg, Austria
Current Conditions -  °F | °C
As of 11:20 AM on Wednesday 28 Jan 2015 (Local Time) from LOWG Reporting Station
Few Clouds Few Clouds  
Wind Chill: 32°   Ceiling: Unl
Heat Index: 32°   Visibility: 6mi
Dew Point: 27°   Wind: 1mph
Humidity: 80%   Direction: NA
Pressure: 30.03"   Gusts: NA
Location:  46.82°N, 15.21°E
Report Text: LOWG 280920Z VRB01KT 9999 FEW050 M00/M03 Q1017 R17/1///95 NOSIG
Loading
Personal Weather Stations






























Interactive Weather Map New forecast layout! Learn more

10-Day Weather Forecast

Advertisements
Track Severe Weather on mobile